sensor_id;sensor_type;location;lat;lon;timestamp;P1;durP1;ratioP1;P2;durP2;ratioP2
6757;SDS011;3416;53.074;8.822;2023-02-28T00:00:09;9.82;;;5.75;;
6757;SDS011;3416;53.074;8.822;2023-02-28T00:02:37;7.70;;;5.97;;
6757;SDS011;3416;53.074;8.822;2023-02-28T00:05:06;9.15;;;6.10;;
6757;SDS011;3416;53.074;8.822;2023-02-28T00:07:35;13.95;;;7.80;;
6757;SDS011;3416;53.074;8.822;2023-02-28T00:10:02;12.32;;;7.50;;
6757;SDS011;3416;53.074;8.822;2023-02-28T00:12:32;10.73;;;6.47;;
6757;SDS011;3416;53.074;8.822;2023-02-28T00:15:00;9.85;;;6.35;;
6757;SDS011;3416;53.074;8.822;2023-02-28T00:17:28;10.40;;;6.55;;
6757;SDS011;3416;53.074;8.822;2023-02-28T00:19:55;10.15;;;6.63;;
6757;SDS011;3416;53.074;8.822;2023-02-28T00:22:22;9.45;;;5.90;;
6757;SDS011;3416;53.074;8.822;2023-02-28T00:24:49;10.93;;;6.10;;
6757;SDS011;3416;53.074;8.822;2023-02-28T00:27:18;14.35;;;7.00;;
6757;SDS011;3416;53.074;8.822;2023-02-28T00:29:46;16.13;;;5.97;;
6757;SDS011;3416;53.074;8.822;2023-02-28T00:32:15;9.10;;;5.70;;
6757;SDS011;3416;53.074;8.822;2023-02-28T00:34:43;9.75;;;5.93;;
6757;SDS011;3416;53.074;8.822;2023-02-28T00:37:11;8.93;;;6.32;;
6757;SDS011;3416;53.074;8.822;2023-02-28T00:39:38;9.93;;;6.22;;
6757;SDS011;3416;53.074;8.822;2023-02-28T00:42:07;12.30;;;6.65;;
6757;SDS011;3416;53.074;8.822;2023-02-28T00:44:34;7.57;;;5.82;;
6757;SDS011;3416;53.074;8.822;2023-02-28T00:47:01;11.20;;;6.57;;
6757;SDS011;3416;53.074;8.822;2023-02-28T00:49:29;8.65;;;5.10;;
6757;SDS011;3416;53.074;8.822;2023-02-28T00:51:56;8.40;;;4.93;;
6757;SDS011;3416;53.074;8.822;2023-02-28T00:54:23;8.60;;;5.75;;
6757;SDS011;3416;53.074;8.822;2023-02-28T00:56:50;12.07;;;6.03;;
6757;SDS011;3416;53.074;8.822;2023-02-28T00:59:17;8.43;;;5.53;;
6757;SDS011;3416;53.074;8.822;2023-02-28T01:01:45;11.90;;;6.22;;
6757;SDS011;3416;53.074;8.822;2023-02-28T01:04:12;9.65;;;6.03;;
6757;SDS011;3416;53.074;8.822;2023-02-28T01:06:41;8.65;;;5.75;;
6757;SDS011;3416;53.074;8.822;2023-02-28T01:09:08;9.80;;;5.93;;
6757;SDS011;3416;53.074;8.822;2023-02-28T01:11:36;14.25;;;6.22;;
6757;SDS011;3416;53.074;8.822;2023-02-28T01:14:03;8.85;;;5.47;;
6757;SDS011;3416;53.074;8.822;2023-02-28T01:16:30;9.65;;;6.45;;
6757;SDS011;3416;53.074;8.822;2023-02-28T01:18:58;12.55;;;6.43;;
6757;SDS011;3416;53.074;8.822;2023-02-28T01:21:25;9.50;;;6.05;;
6757;SDS011;3416;53.074;8.822;2023-02-28T01:23:55;9.13;;;5.82;;
6757;SDS011;3416;53.074;8.822;2023-02-28T01:26:22;11.15;;;6.10;;
6757;SDS011;3416;53.074;8.822;2023-02-28T01:28:50;11.05;;;5.70;;
6757;SDS011;3416;53.074;8.822;2023-02-28T01:31:19;7.72;;;5.97;;
6757;SDS011;3416;53.074;8.822;2023-02-28T01:33:46;10.68;;;5.00;;
6757;SDS011;3416;53.074;8.822;2023-02-28T01:36:14;9.60;;;5.97;;
6757;SDS011;3416;53.074;8.822;2023-02-28T01:38:43;11.25;;;6.03;;
6757;SDS011;3416;53.074;8.822;2023-02-28T01:41:14;13.30;;;6.50;;
6757;SDS011;3416;53.074;8.822;2023-02-28T01:43:53;10.88;;;6.85;;
6757;SDS011;3416;53.074;8.822;2023-02-28T01:46:23;9.50;;;6.45;;
6757;SDS011;3416;53.074;8.822;2023-02-28T01:48:51;7.38;;;6.53;;
6757;SDS011;3416;53.074;8.822;2023-02-28T01:51:21;9.10;;;5.93;;
6757;SDS011;3416;53.074;8.822;2023-02-28T01:53:52;12.57;;;7.20;;
6757;SDS011;3416;53.074;8.822;2023-02-28T01:56:24;13.75;;;7.40;;
6757;SDS011;3416;53.074;8.822;2023-02-28T01:58:55;10.95;;;6.55;;
6757;SDS011;3416;53.074;8.822;2023-02-28T02:01:26;9.85;;;7.05;;
6757;SDS011;3416;53.074;8.822;2023-02-28T02:03:55;13.68;;;6.57;;
6757;SDS011;3416;53.074;8.822;2023-02-28T02:06:25;11.00;;;6.82;;
6757;SDS011;3416;53.074;8.822;2023-02-28T02:08:55;8.38;;;6.43;;
6757;SDS011;3416;53.074;8.822;2023-02-28T02:11:23;11.82;;;7.55;;
6757;SDS011;3416;53.074;8.822;2023-02-28T02:13:58;8.85;;;6.45;;
6757;SDS011;3416;53.074;8.822;2023-02-28T02:16:51;9.57;;;5.80;;
6757;SDS011;3416;53.074;8.822;2023-02-28T02:19:47;9.90;;;6.28;;
6757;SDS011;3416;53.074;8.822;2023-02-28T02:25:49;8.13;;;6.35;;
6757;SDS011;3416;53.074;8.822;2023-02-28T02:34:25;11.85;;;5.95;;
6757;SDS011;3416;53.074;8.822;2023-02-28T02:37:15;8.48;;;6.05;;
6757;SDS011;3416;53.074;8.822;2023-02-28T02:39:55;8.98;;;5.85;;
6757;SDS011;3416;53.074;8.822;2023-02-28T02:42:31;16.30;;;7.50;;
6757;SDS011;3416;53.074;8.822;2023-02-28T02:45:06;10.25;;;6.05;;
6757;SDS011;3416;53.074;8.822;2023-02-28T02:47:36;9.70;;;6.35;;
6757;SDS011;3416;53.074;8.822;2023-02-28T02:50:07;9.10;;;5.72;;
6757;SDS011;3416;53.074;8.822;2023-02-28T02:52:39;9.65;;;6.90;;
6757;SDS011;3416;53.074;8.822;2023-02-28T02:55:10;14.63;;;6.90;;
6757;SDS011;3416;53.074;8.822;2023-02-28T02:57:40;12.70;;;6.90;;
6757;SDS011;3416;53.074;8.822;2023-02-28T03:00:12;14.30;;;7.35;;
6757;SDS011;3416;53.074;8.822;2023-02-28T03:02:42;7.60;;;5.65;;
6757;SDS011;3416;53.074;8.822;2023-02-28T03:05:15;10.90;;;6.60;;
6757;SDS011;3416;53.074;8.822;2023-02-28T03:07:46;9.77;;;6.43;;
6757;SDS011;3416;53.074;8.822;2023-02-28T03:10:26;10.63;;;7.80;;
6757;SDS011;3416;53.074;8.822;2023-02-28T03:16:03;8.73;;;5.90;;
6757;SDS011;3416;53.074;8.822;2023-02-28T03:18:43;13.80;;;7.75;;
6757;SDS011;3416;53.074;8.822;2023-02-28T03:21:23;7.18;;;6.05;;
6757;SDS011;3416;53.074;8.822;2023-02-28T03:23:56;10.13;;;5.50;;
6757;SDS011;3416;53.074;8.822;2023-02-28T03:26:31;13.07;;;6.88;;
6757;SDS011;3416;53.074;8.822;2023-02-28T03:29:05;10.40;;;7.07;;
6757;SDS011;3416;53.074;8.822;2023-02-28T03:31:43;9.55;;;6.45;;
6757;SDS011;3416;53.074;8.822;2023-02-28T03:34:15;10.32;;;7.30;;
6757;SDS011;3416;53.074;8.822;2023-02-28T03:36:48;10.75;;;6.78;;
6757;SDS011;3416;53.074;8.822;2023-02-28T03:39:20;11.05;;;6.95;;
6757;SDS011;3416;53.074;8.822;2023-02-28T03:41:51;8.50;;;6.60;;
6757;SDS011;3416;53.074;8.822;2023-02-28T03:44:24;7.40;;;6.68;;
6757;SDS011;3416;53.074;8.822;2023-02-28T03:46:57;12.07;;;6.80;;
6757;SDS011;3416;53.074;8.822;2023-02-28T03:49:30;9.50;;;6.88;;
6757;SDS011;3416;53.074;8.822;2023-02-28T03:52:00;11.15;;;6.82;;
6757;SDS011;3416;53.074;8.822;2023-02-28T03:54:31;12.55;;;5.97;;
6757;SDS011;3416;53.074;8.822;2023-02-28T03:57:02;10.77;;;6.55;;
6757;SDS011;3416;53.074;8.822;2023-02-28T03:59:34;8.35;;;5.22;;
6757;SDS011;3416;53.074;8.822;2023-02-28T04:02:03;12.25;;;6.93;;
6757;SDS011;3416;53.074;8.822;2023-02-28T04:04:30;9.95;;;5.78;;
6757;SDS011;3416;53.074;8.822;2023-02-28T04:07:03;10.88;;;6.65;;
6757;SDS011;3416;53.074;8.822;2023-02-28T04:09:31;8.18;;;7.20;;
6757;SDS011;3416;53.074;8.822;2023-02-28T04:11:58;7.72;;;5.35;;
6757;SDS011;3416;53.074;8.822;2023-02-28T04:14:26;9.93;;;7.07;;
6757;SDS011;3416;53.074;8.822;2023-02-28T04:16:53;11.20;;;7.10;;
6757;SDS011;3416;53.074;8.822;2023-02-28T04:19:19;9.68;;;7.10;;
6757;SDS011;3416;53.074;8.822;2023-02-28T04:21:48;10.00;;;7.82;;
6757;SDS011;3416;53.074;8.822;2023-02-28T04:24:18;13.05;;;6.90;;
6757;SDS011;3416;53.074;8.822;2023-02-28T04:26:46;9.10;;;7.38;;
6757;SDS011;3416;53.074;8.822;2023-02-28T04:29:19;12.77;;;6.70;;
6757;SDS011;3416;53.074;8.822;2023-02-28T04:31:47;10.70;;;6.88;;
6757;SDS011;3416;53.074;8.822;2023-02-28T04:34:14;7.90;;;6.40;;
6757;SDS011;3416;53.074;8.822;2023-02-28T04:36:41;8.73;;;6.90;;
6757;SDS011;3416;53.074;8.822;2023-02-28T04:39:08;13.00;;;6.50;;
6757;SDS011;3416;53.074;8.822;2023-02-28T04:41:37;7.72;;;6.22;;
6757;SDS011;3416;53.074;8.822;2023-02-28T04:44:04;6.30;;;5.70;;
6757;SDS011;3416;53.074;8.822;2023-02-28T04:46:31;10.77;;;6.88;;
6757;SDS011;3416;53.074;8.822;2023-02-28T04:48:58;10.30;;;6.20;;
6757;SDS011;3416;53.074;8.822;2023-02-28T04:51:25;11.73;;;7.07;;
6757;SDS011;3416;53.074;8.822;2023-02-28T04:53:52;9.30;;;6.85;;
6757;SDS011;3416;53.074;8.822;2023-02-28T04:56:19;10.30;;;6.55;;
6757;SDS011;3416;53.074;8.822;2023-02-28T04:58:47;8.23;;;6.45;;
6757;SDS011;3416;53.074;8.822;2023-02-28T05:01:17;8.52;;;6.10;;
6757;SDS011;3416;53.074;8.822;2023-02-28T05:03:46;11.73;;;7.03;;
6757;SDS011;3416;53.074;8.822;2023-02-28T05:06:14;7.35;;;5.82;;
6757;SDS011;3416;53.074;8.822;2023-02-28T05:08:41;8.77;;;7.35;;
6757;SDS011;3416;53.074;8.822;2023-02-28T05:11:11;8.63;;;6.90;;
6757;SDS011;3416;53.074;8.822;2023-02-28T05:13:40;11.63;;;7.95;;
6757;SDS011;3416;53.074;8.822;2023-02-28T05:16:09;8.30;;;6.57;;
6757;SDS011;3416;53.074;8.822;2023-02-28T05:18:36;9.63;;;6.70;;
6757;SDS011;3416;53.074;8.822;2023-02-28T05:21:04;8.38;;;7.55;;
6757;SDS011;3416;53.074;8.822;2023-02-28T05:23:31;13.75;;;8.20;;
6757;SDS011;3416;53.074;8.822;2023-02-28T05:25:59;10.90;;;8.07;;
6757;SDS011;3416;53.074;8.822;2023-02-28T05:28:25;10.32;;;6.72;;
6757;SDS011;3416;53.074;8.822;2023-02-28T05:30:52;8.75;;;6.85;;
6757;SDS011;3416;53.074;8.822;2023-02-28T05:33:21;7.82;;;7.07;;
6757;SDS011;3416;53.074;8.822;2023-02-28T05:35:48;12.13;;;6.90;;
6757;SDS011;3416;53.074;8.822;2023-02-28T05:38:15;7.22;;;6.38;;
6757;SDS011;3416;53.074;8.822;2023-02-28T05:40:44;9.80;;;6.72;;
6757;SDS011;3416;53.074;8.822;2023-02-28T05:43:11;8.95;;;6.25;;
6757;SDS011;3416;53.074;8.822;2023-02-28T05:45:38;7.25;;;5.90;;
6757;SDS011;3416;53.074;8.822;2023-02-28T05:48:05;7.30;;;6.47;;
6757;SDS011;3416;53.074;8.822;2023-02-28T05:50:35;9.55;;;7.40;;
6757;SDS011;3416;53.074;8.822;2023-02-28T05:53:02;10.85;;;7.75;;
6757;SDS011;3416;53.074;8.822;2023-02-28T05:55:30;17.65;;;8.05;;
6757;SDS011;3416;53.074;8.822;2023-02-28T05:57:57;12.02;;;7.53;;
6757;SDS011;3416;53.074;8.822;2023-02-28T06:00:24;14.38;;;8.10;;
6757;SDS011;3416;53.074;8.822;2023-02-28T06:02:51;11.45;;;8.27;;
6757;SDS011;3416;53.074;8.822;2023-02-28T06:05:21;9.95;;;8.10;;
6757;SDS011;3416;53.074;8.822;2023-02-28T06:07:50;13.77;;;8.05;;
6757;SDS011;3416;53.074;8.822;2023-02-28T06:10:17;11.35;;;7.97;;
6757;SDS011;3416;53.074;8.822;2023-02-28T06:12:44;12.15;;;8.25;;
6757;SDS011;3416;53.074;8.822;2023-02-28T06:15:13;12.07;;;9.00;;
6757;SDS011;3416;53.074;8.822;2023-02-28T06:17:41;13.55;;;8.07;;
6757;SDS011;3416;53.074;8.822;2023-02-28T06:20:09;12.77;;;8.60;;
6757;SDS011;3416;53.074;8.822;2023-02-28T06:22:38;9.02;;;6.60;;
6757;SDS011;3416;53.074;8.822;2023-02-28T06:25:10;13.32;;;7.53;;
6757;SDS011;3416;53.074;8.822;2023-02-28T06:27:37;10.15;;;8.25;;
6757;SDS011;3416;53.074;8.822;2023-02-28T06:30:04;11.57;;;7.15;;
6757;SDS011;3416;53.074;8.822;2023-02-28T06:32:32;7.68;;;6.97;;
6757;SDS011;3416;53.074;8.822;2023-02-28T06:35:01;10.30;;;7.40;;
6757;SDS011;3416;53.074;8.822;2023-02-28T06:37:28;11.80;;;7.90;;
6757;SDS011;3416;53.074;8.822;2023-02-28T06:39:56;12.43;;;8.82;;
6757;SDS011;3416;53.074;8.822;2023-02-28T06:42:25;11.60;;;8.05;;
6757;SDS011;3416;53.074;8.822;2023-02-28T06:44:53;9.63;;;8.02;;
6757;SDS011;3416;53.074;8.822;2023-02-28T06:47:21;12.18;;;8.52;;
6757;SDS011;3416;53.074;8.822;2023-02-28T06:49:50;11.80;;;7.95;;
6757;SDS011;3416;53.074;8.822;2023-02-28T06:52:19;11.35;;;7.65;;
6757;SDS011;3416;53.074;8.822;2023-02-28T06:54:48;12.85;;;7.90;;
6757;SDS011;3416;53.074;8.822;2023-02-28T06:57:26;10.70;;;7.53;;
6757;SDS011;3416;53.074;8.822;2023-02-28T06:59:55;9.70;;;7.45;;
6757;SDS011;3416;53.074;8.822;2023-02-28T07:02:24;10.77;;;7.20;;
6757;SDS011;3416;53.074;8.822;2023-02-28T07:04:51;10.27;;;6.78;;
6757;SDS011;3416;53.074;8.822;2023-02-28T07:07:19;11.88;;;7.32;;
6757;SDS011;3416;53.074;8.822;2023-02-28T07:09:46;9.65;;;7.72;;
6757;SDS011;3416;53.074;8.822;2023-02-28T07:12:13;10.55;;;7.30;;
6757;SDS011;3416;53.074;8.822;2023-02-28T07:14:41;10.02;;;6.75;;
6757;SDS011;3416;53.074;8.822;2023-02-28T07:17:09;11.25;;;6.50;;
6757;SDS011;3416;53.074;8.822;2023-02-28T07:19:37;8.15;;;6.07;;
6757;SDS011;3416;53.074;8.822;2023-02-28T07:22:07;8.02;;;6.00;;
6757;SDS011;3416;53.074;8.822;2023-02-28T07:24:35;6.65;;;5.68;;
6757;SDS011;3416;53.074;8.822;2023-02-28T07:27:11;9.27;;;5.88;;
6757;SDS011;3416;53.074;8.822;2023-02-28T07:29:50;10.30;;;6.05;;
6757;SDS011;3416;53.074;8.822;2023-02-28T07:32:19;12.23;;;5.22;;
6757;SDS011;3416;53.074;8.822;2023-02-28T07:34:49;12.90;;;6.10;;
6757;SDS011;3416;53.074;8.822;2023-02-28T07:37:31;7.75;;;6.43;;
6757;SDS011;3416;53.074;8.822;2023-02-28T07:40:02;8.00;;;6.88;;
6757;SDS011;3416;53.074;8.822;2023-02-28T07:42:36;7.55;;;5.55;;
6757;SDS011;3416;53.074;8.822;2023-02-28T07:45:31;7.85;;;5.88;;
6757;SDS011;3416;53.074;8.822;2023-02-28T07:48:17;14.85;;;6.68;;
6757;SDS011;3416;53.074;8.822;2023-02-28T07:51:00;10.52;;;5.82;;
6757;SDS011;3416;53.074;8.822;2023-02-28T07:53:29;10.20;;;5.75;;
6757;SDS011;3416;53.074;8.822;2023-02-28T07:56:04;11.70;;;5.63;;
6757;SDS011;3416;53.074;8.822;2023-02-28T07:58:33;7.13;;;5.30;;
6757;SDS011;3416;53.074;8.822;2023-02-28T08:01:06;8.00;;;5.93;;
6757;SDS011;3416;53.074;8.822;2023-02-28T08:03:34;8.77;;;6.15;;
6757;SDS011;3416;53.074;8.822;2023-02-28T08:06:02;8.93;;;5.25;;
6757;SDS011;3416;53.074;8.822;2023-02-28T08:08:30;6.22;;;5.25;;
6757;SDS011;3416;53.074;8.822;2023-02-28T08:10:57;9.82;;;5.45;;
6757;SDS011;3416;53.074;8.822;2023-02-28T08:13:26;5.85;;;5.25;;
6757;SDS011;3416;53.074;8.822;2023-02-28T08:15:53;6.85;;;5.30;;
6757;SDS011;3416;53.074;8.822;2023-02-28T08:18:22;9.63;;;5.40;;
6757;SDS011;3416;53.074;8.822;2023-02-28T08:20:49;9.00;;;5.55;;
6757;SDS011;3416;53.074;8.822;2023-02-28T08:23:16;7.05;;;5.60;;
6757;SDS011;3416;53.074;8.822;2023-02-28T08:25:44;9.40;;;5.50;;
6757;SDS011;3416;53.074;8.822;2023-02-28T08:28:18;5.40;;;4.55;;
6757;SDS011;3416;53.074;8.822;2023-02-28T08:30:45;12.13;;;5.50;;
6757;SDS011;3416;53.074;8.822;2023-02-28T08:33:12;5.97;;;4.70;;
6757;SDS011;3416;53.074;8.822;2023-02-28T08:35:40;9.23;;;4.57;;
6757;SDS011;3416;53.074;8.822;2023-02-28T08:38:09;13.43;;;5.63;;
6757;SDS011;3416;53.074;8.822;2023-02-28T08:40:36;6.87;;;4.97;;
6757;SDS011;3416;53.074;8.822;2023-02-28T08:43:03;8.70;;;5.10;;
6757;SDS011;3416;53.074;8.822;2023-02-28T08:45:30;4.70;;;3.63;;
6757;SDS011;3416;53.074;8.822;2023-02-28T08:47:56;6.40;;;3.70;;
6757;SDS011;3416;53.074;8.822;2023-02-28T08:50:23;6.37;;;4.83;;
6757;SDS011;3416;53.074;8.822;2023-02-28T08:52:52;5.40;;;2.83;;
6757;SDS011;3416;53.074;8.822;2023-02-28T08:55:19;4.07;;;3.23;;
6757;SDS011;3416;53.074;8.822;2023-02-28T08:57:46;7.07;;;3.17;;
6757;SDS011;3416;53.074;8.822;2023-02-28T09:00:13;8.95;;;3.55;;
6757;SDS011;3416;53.074;8.822;2023-02-28T09:02:41;4.00;;;2.83;;
6757;SDS011;3416;53.074;8.822;2023-02-28T09:05:13;7.32;;;3.10;;
6757;SDS011;3416;53.074;8.822;2023-02-28T09:07:40;3.30;;;2.80;;
6757;SDS011;3416;53.074;8.822;2023-02-28T09:10:11;4.53;;;3.20;;
6757;SDS011;3416;53.074;8.822;2023-02-28T09:12:41;3.67;;;2.40;;
6757;SDS011;3416;53.074;8.822;2023-02-28T09:15:11;5.13;;;2.60;;
6757;SDS011;3416;53.074;8.822;2023-02-28T09:17:37;2.97;;;2.33;;
6757;SDS011;3416;53.074;8.822;2023-02-28T09:20:05;8.07;;;2.73;;
6757;SDS011;3416;53.074;8.822;2023-02-28T09:22:33;5.00;;;3.37;;
6757;SDS011;3416;53.074;8.822;2023-02-28T09:25:00;6.23;;;3.67;;
6757;SDS011;3416;53.074;8.822;2023-02-28T09:27:29;5.33;;;2.63;;
6757;SDS011;3416;53.074;8.822;2023-02-28T09:29:57;4.73;;;3.33;;
6757;SDS011;3416;53.074;8.822;2023-02-28T09:32:24;3.43;;;2.90;;
6757;SDS011;3416;53.074;8.822;2023-02-28T09:34:52;4.07;;;1.80;;
6757;SDS011;3416;53.074;8.822;2023-02-28T09:37:19;3.40;;;2.43;;
6757;SDS011;3416;53.074;8.822;2023-02-28T09:39:46;2.10;;;1.33;;
6757;SDS011;3416;53.074;8.822;2023-02-28T09:42:18;2.40;;;1.60;;
6757;SDS011;3416;53.074;8.822;2023-02-28T09:44:54;4.13;;;2.00;;
6757;SDS011;3416;53.074;8.822;2023-02-28T09:47:25;5.50;;;2.00;;
6757;SDS011;3416;53.074;8.822;2023-02-28T09:49:56;6.20;;;2.07;;
6757;SDS011;3416;53.074;8.822;2023-02-28T09:52:27;2.70;;;2.07;;
6757;SDS011;3416;53.074;8.822;2023-02-28T09:54:57;3.03;;;1.73;;
6757;SDS011;3416;53.074;8.822;2023-02-28T09:57:31;3.43;;;2.10;;
6757;SDS011;3416;53.074;8.822;2023-02-28T10:00:05;4.60;;;1.87;;
6757;SDS011;3416;53.074;8.822;2023-02-28T10:02:52;2.73;;;2.00;;
6757;SDS011;3416;53.074;8.822;2023-02-28T10:05:28;5.33;;;2.20;;
6757;SDS011;3416;53.074;8.822;2023-02-28T10:08:05;4.63;;;2.23;;
6757;SDS011;3416;53.074;8.822;2023-02-28T10:10:39;2.63;;;1.60;;
6757;SDS011;3416;53.074;8.822;2023-02-28T10:13:19;2.77;;;1.90;;
6757;SDS011;3416;53.074;8.822;2023-02-28T10:15:53;4.10;;;1.70;;
6757;SDS011;3416;53.074;8.822;2023-02-28T10:18:25;2.67;;;1.70;;
6757;SDS011;3416;53.074;8.822;2023-02-28T10:20:56;2.63;;;2.03;;
6757;SDS011;3416;53.074;8.822;2023-02-28T10:23:26;3.60;;;1.90;;
6757;SDS011;3416;53.074;8.822;2023-02-28T10:25:58;2.20;;;2.00;;
6757;SDS011;3416;53.074;8.822;2023-02-28T10:28:28;3.00;;;1.90;;
6757;SDS011;3416;53.074;8.822;2023-02-28T10:30:58;3.42;;;2.30;;
6757;SDS011;3416;53.074;8.822;2023-02-28T10:33:28;2.75;;;2.22;;
6757;SDS011;3416;53.074;8.822;2023-02-28T10:35:57;1.63;;;1.52;;
6757;SDS011;3416;53.074;8.822;2023-02-28T10:38:25;1.83;;;1.50;;
6757;SDS011;3416;53.074;8.822;2023-02-28T10:41:03;4.05;;;2.58;;
6757;SDS011;3416;53.074;8.822;2023-02-28T10:43:31;5.95;;;1.90;;
6757;SDS011;3416;53.074;8.822;2023-02-28T10:46:01;3.88;;;2.05;;
6757;SDS011;3416;53.074;8.822;2023-02-28T10:48:34;3.25;;;1.88;;
6757;SDS011;3416;53.074;8.822;2023-02-28T10:51:04;2.08;;;1.60;;
6757;SDS011;3416;53.074;8.822;2023-02-28T10:53:37;4.10;;;1.90;;
6757;SDS011;3416;53.074;8.822;2023-02-28T10:56:17;3.22;;;2.22;;
6757;SDS011;3416;53.074;8.822;2023-02-28T10:58:48;2.53;;;2.05;;
6757;SDS011;3416;53.074;8.822;2023-02-28T11:01:40;3.03;;;2.25;;
6757;SDS011;3416;53.074;8.822;2023-02-28T11:04:17;3.25;;;2.20;;
6757;SDS011;3416;53.074;8.822;2023-02-28T11:06:51;5.45;;;2.40;;
6757;SDS011;3416;53.074;8.822;2023-02-28T11:09:24;5.53;;;2.65;;
6757;SDS011;3416;53.074;8.822;2023-02-28T11:11:55;4.53;;;2.28;;
6757;SDS011;3416;53.074;8.822;2023-02-28T11:14:24;3.17;;;2.08;;
6757;SDS011;3416;53.074;8.822;2023-02-28T11:16:56;4.20;;;2.33;;
6757;SDS011;3416;53.074;8.822;2023-02-28T11:19:38;7.57;;;4.20;;
6757;SDS011;3416;53.074;8.822;2023-02-28T11:22:10;3.83;;;2.63;;
6757;SDS011;3416;53.074;8.822;2023-02-28T11:24:46;3.58;;;2.72;;
6757;SDS011;3416;53.074;8.822;2023-02-28T11:27:26;3.88;;;2.50;;
6757;SDS011;3416;53.074;8.822;2023-02-28T11:33:00;4.10;;;2.00;;
6757;SDS011;3416;53.074;8.822;2023-02-28T11:35:46;6.28;;;3.10;;
6757;SDS011;3416;53.074;8.822;2023-02-28T11:38:22;3.45;;;2.05;;
6757;SDS011;3416;53.074;8.822;2023-02-28T11:40:52;4.43;;;2.25;;
6757;SDS011;3416;53.074;8.822;2023-02-28T11:43:34;4.70;;;2.38;;
6757;SDS011;3416;53.074;8.822;2023-02-28T11:46:20;2.45;;;1.90;;
6757;SDS011;3416;53.074;8.822;2023-02-28T11:49:01;3.67;;;2.30;;
6757;SDS011;3416;53.074;8.822;2023-02-28T11:51:42;3.53;;;2.13;;
6757;SDS011;3416;53.074;8.822;2023-02-28T11:54:30;3.80;;;2.38;;
6757;SDS011;3416;53.074;8.822;2023-02-28T11:57:16;6.72;;;2.38;;
6757;SDS011;3416;53.074;8.822;2023-02-28T12:00:11;5.55;;;2.80;;
6757;SDS011;3416;53.074;8.822;2023-02-28T12:02:54;4.43;;;2.25;;
6757;SDS011;3416;53.074;8.822;2023-02-28T12:05:30;3.00;;;2.10;;
6757;SDS011;3416;53.074;8.822;2023-02-28T12:08:07;7.50;;;3.83;;
6757;SDS011;3416;53.074;8.822;2023-02-28T12:10:49;3.47;;;2.70;;
6757;SDS011;3416;53.074;8.822;2023-02-28T12:13:28;4.28;;;2.65;;
6757;SDS011;3416;53.074;8.822;2023-02-28T12:16:13;4.72;;;2.47;;
6757;SDS011;3416;53.074;8.822;2023-02-28T12:18:59;3.80;;;2.38;;
6757;SDS011;3416;53.074;8.822;2023-02-28T12:21:41;3.67;;;2.40;;
6757;SDS011;3416;53.074;8.822;2023-02-28T12:24:22;2.90;;;2.50;;
6757;SDS011;3416;53.074;8.822;2023-02-28T12:27:10;2.67;;;1.95;;
6757;SDS011;3416;53.074;8.822;2023-02-28T12:29:43;3.60;;;2.33;;
6757;SDS011;3416;53.074;8.822;2023-02-28T12:32:16;3.75;;;2.13;;
6757;SDS011;3416;53.074;8.822;2023-02-28T12:34:49;4.38;;;1.80;;
6757;SDS011;3416;53.074;8.822;2023-02-28T12:37:21;3.53;;;1.98;;
6757;SDS011;3416;53.074;8.822;2023-02-28T12:39:54;2.25;;;1.98;;
6757;SDS011;3416;53.074;8.822;2023-02-28T12:42:31;2.53;;;2.33;;
6757;SDS011;3416;53.074;8.822;2023-02-28T12:45:04;4.93;;;2.30;;
6757;SDS011;3416;53.074;8.822;2023-02-28T12:47:40;3.35;;;2.30;;
6757;SDS011;3416;53.074;8.822;2023-02-28T12:50:11;1.90;;;1.80;;
6757;SDS011;3416;53.074;8.822;2023-02-28T12:52:41;1.80;;;1.70;;
6757;SDS011;3416;53.074;8.822;2023-02-28T12:55:19;3.65;;;2.20;;
6757;SDS011;3416;53.074;8.822;2023-02-28T12:57:57;3.40;;;2.28;;
6757;SDS011;3416;53.074;8.822;2023-02-28T13:00:34;9.73;;;2.60;;
6757;SDS011;3416;53.074;8.822;2023-02-28T13:03:11;4.35;;;1.90;;
6757;SDS011;3416;53.074;8.822;2023-02-28T13:06:13;3.25;;;2.50;;
6757;SDS011;3416;53.074;8.822;2023-02-28T13:09:06;2.20;;;1.85;;
6757;SDS011;3416;53.074;8.822;2023-02-28T13:11:41;2.85;;;2.33;;
6757;SDS011;3416;53.074;8.822;2023-02-28T13:14:22;3.05;;;2.08;;
6757;SDS011;3416;53.074;8.822;2023-02-28T13:16:55;1.85;;;1.73;;
6757;SDS011;3416;53.074;8.822;2023-02-28T13:19:26;4.32;;;2.22;;
6757;SDS011;3416;53.074;8.822;2023-02-28T13:21:56;6.00;;;1.80;;
6757;SDS011;3416;53.074;8.822;2023-02-28T13:24:43;4.43;;;2.42;;
6757;SDS011;3416;53.074;8.822;2023-02-28T13:27:23;3.00;;;2.10;;
6757;SDS011;3416;53.074;8.822;2023-02-28T13:29:57;2.63;;;2.30;;
6757;SDS011;3416;53.074;8.822;2023-02-28T13:32:35;2.80;;;2.30;;
6757;SDS011;3416;53.074;8.822;2023-02-28T13:35:15;2.20;;;2.00;;
6757;SDS011;3416;53.074;8.822;2023-02-28T13:38:15;2.92;;;1.95;;
6757;SDS011;3416;53.074;8.822;2023-02-28T13:44:07;6.75;;;2.45;;
6757;SDS011;3416;53.074;8.822;2023-02-28T13:46:38;4.82;;;2.85;;
6757;SDS011;3416;53.074;8.822;2023-02-28T13:49:42;6.47;;;2.22;;
6757;SDS011;3416;53.074;8.822;2023-02-28T13:52:11;2.80;;;2.22;;
6757;SDS011;3416;53.074;8.822;2023-02-28T13:54:45;4.10;;;2.95;;
6757;SDS011;3416;53.074;8.822;2023-02-28T13:57:41;3.15;;;2.00;;
6757;SDS011;3416;53.074;8.822;2023-02-28T14:00:20;3.83;;;1.77;;
6757;SDS011;3416;53.074;8.822;2023-02-28T14:03:01;1.90;;;1.80;;
6757;SDS011;3416;53.074;8.822;2023-02-28T14:05:48;1.70;;;1.60;;
6757;SDS011;3416;53.074;8.822;2023-02-28T14:08:36;3.40;;;2.10;;
6757;SDS011;3416;53.074;8.822;2023-02-28T14:11:05;2.67;;;2.20;;
6757;SDS011;3416;53.074;8.822;2023-02-28T14:13:37;1.70;;;1.60;;
6757;SDS011;3416;53.074;8.822;2023-02-28T14:16:11;3.28;;;1.80;;
6757;SDS011;3416;53.074;8.822;2023-02-28T14:18:40;3.22;;;2.50;;
6757;SDS011;3416;53.074;8.822;2023-02-28T14:21:20;3.30;;;2.20;;
6757;SDS011;3416;53.074;8.822;2023-02-28T14:24:07;2.05;;;1.85;;
6757;SDS011;3416;53.074;8.822;2023-02-28T14:26:51;3.33;;;2.67;;
6757;SDS011;3416;53.074;8.822;2023-02-28T14:32:43;3.00;;;2.20;;
6757;SDS011;3416;53.074;8.822;2023-02-28T14:35:18;1.92;;;1.63;;
6757;SDS011;3416;53.074;8.822;2023-02-28T14:37:53;3.95;;;2.05;;
6757;SDS011;3416;53.074;8.822;2023-02-28T14:40:22;6.70;;;2.78;;
6757;SDS011;3416;53.074;8.822;2023-02-28T14:42:55;2.65;;;2.15;;
6757;SDS011;3416;53.074;8.822;2023-02-28T14:45:25;2.13;;;1.65;;
6757;SDS011;3416;53.074;8.822;2023-02-28T14:47:57;2.45;;;2.15;;
6757;SDS011;3416;53.074;8.822;2023-02-28T14:50:27;5.18;;;2.30;;
6757;SDS011;3416;53.074;8.822;2023-02-28T14:52:56;3.42;;;2.10;;
6757;SDS011;3416;53.074;8.822;2023-02-28T14:55:26;2.35;;;1.75;;
6757;SDS011;3416;53.074;8.822;2023-02-28T14:57:55;2.17;;;1.65;;
6757;SDS011;3416;53.074;8.822;2023-02-28T15:00:24;4.32;;;2.15;;
6757;SDS011;3416;53.074;8.822;2023-02-28T15:02:52;5.60;;;2.70;;
6757;SDS011;3416;53.074;8.822;2023-02-28T15:05:26;2.30;;;2.08;;
6757;SDS011;3416;53.074;8.822;2023-02-28T15:08:03;3.00;;;2.25;;
6757;SDS011;3416;53.074;8.822;2023-02-28T15:10:33;2.55;;;2.00;;
6757;SDS011;3416;53.074;8.822;2023-02-28T15:13:01;3.35;;;2.20;;
6757;SDS011;3416;53.074;8.822;2023-02-28T15:15:35;2.95;;;1.85;;
6757;SDS011;3416;53.074;8.822;2023-02-28T15:18:10;3.95;;;2.08;;
6757;SDS011;3416;53.074;8.822;2023-02-28T15:20:46;4.68;;;2.35;;
6757;SDS011;3416;53.074;8.822;2023-02-28T15:23:13;2.75;;;2.55;;
6757;SDS011;3416;53.074;8.822;2023-02-28T15:25:42;5.55;;;2.17;;
6757;SDS011;3416;53.074;8.822;2023-02-28T15:28:11;2.85;;;2.17;;
6757;SDS011;3416;53.074;8.822;2023-02-28T15:30:51;4.63;;;2.20;;
6757;SDS011;3416;53.074;8.822;2023-02-28T15:33:24;2.42;;;1.80;;
6757;SDS011;3416;53.074;8.822;2023-02-28T15:38:40;2.95;;;2.50;;
6757;SDS011;3416;53.074;8.822;2023-02-28T15:41:20;2.33;;;2.13;;
6757;SDS011;3416;53.074;8.822;2023-02-28T15:43:57;2.00;;;1.90;;
6757;SDS011;3416;53.074;8.822;2023-02-28T15:46:44;3.50;;;2.13;;
6757;SDS011;3416;53.074;8.822;2023-02-28T15:49:21;1.92;;;1.73;;
6757;SDS011;3416;53.074;8.822;2023-02-28T15:51:50;2.78;;;2.17;;
6757;SDS011;3416;53.074;8.822;2023-02-28T15:54:20;4.90;;;2.40;;
6757;SDS011;3416;53.074;8.822;2023-02-28T15:56:52;3.60;;;2.63;;
6757;SDS011;3416;53.074;8.822;2023-02-28T15:59:22;4.10;;;2.53;;
6757;SDS011;3416;53.074;8.822;2023-02-28T16:02:04;4.80;;;3.80;;
6757;SDS011;3416;53.074;8.822;2023-02-28T16:04:54;3.25;;;2.53;;
6757;SDS011;3416;53.074;8.822;2023-02-28T16:07:27;3.58;;;2.40;;